Terminal Aerodrome Forecast
Issued by NWS

Home | Current Version | Previous Version | Text Only | Print | Product List | Glossary On
Versions: 1 2 3 4 5 6 7 8 9 10 11 12 13 14 15 16 17 18 19 20 21
000
FTUS46 KMFR 181140
TAFRBG
TAF
KRBG 181140Z 1812/1912 16005KT 2SM BR OVC003
     FM181800 VRB03KT P6SM SCT010 BKN025
     FM182100 16008KT P6SM SCT025 OVC080=

USA.gov is the U.S. government's official web portal to all federal, state and local government web resources and services.